Andover, OH

12:11 PM EST on February 11, 2016 (GMT -0500)
linesville | | Change Station
CLOSE
Current Station
Personal Weather Station
Location: Linesville, PA
Elevation: 1129 ft
Nearby Weather Stations
Active Advisory: Lake Effect Snow Warning Active Notice: Local Storm Report

Elev 1129 ft 41.58 °N, 80.49 °W | Updated 2 minutes ago

Overcast
Overcast
17.4 °F
Feels Like 8 °F
N
6.8
Wind Variable Wind from NW

Today
High -- | Low -- °F
--% Chance of Precip.
Yesterday
High -- | Low -- °F
Precip. -- in
Pressure 30.19 in
Visibility 10.0 miles
Clouds Overcast 3900 ft
Windchill 8 °F
Dew Point 7 °F
Humidity 64%
Rainfall 0.00 in
Snow Depth Not available.
7:23 AM 5:50 PM
Waxing Crescent, 13% visible
METAR KHZY 111653Z AUTO 31012G20KT 10SM OVC039 M09/M16 A3014 RMK AO2 PK WND 33027/1636 SLP221 T10941161 TSNO
Pressure 30.19 in
Visibility 10.0 miles
Clouds Overcast 3900 ft
Windchill 8 °F
Dew Point 7 °F
Humidity 64%
Rainfall 0.00 in
Snow Depth Not available.
7:23 AM 5:50 PM
Waxing Crescent, 13% visible
METAR KHZY 111653Z AUTO 31012G20KT 10SM OVC039 M09/M16 A3014 RMK AO2 PK WND 33027/1636 SLP221 T10941161 TSNO

10-Day Weather Forecast

Almanac

Astronomy

Feb. 11, 2016 Rise Set
Actual Time
Civil Twilight
Nautical Twilight
Astronomical Twilight
Moon
Length of Visible Light
Length of Day
Tomorrow will be .
, % of the Moon is Illuminated

Today's Extremes

State Highs State Lows

Community

WunderPhotos

Upload Photos

1,892,104 photos uploaded!

WunderBlog® & News

Nearby

Air Quality

  Air Quality AQ Index Pollutant
Not available.

Snow Depth

Station Depth Elevation

Earthquake Activity

City Distance Mag. Time & Date
Minimum magnitude displayed is 2.5.

Coastal Water Temperatures

Place Temperature

Stations

Nearby Weather Stations

Station Location Temp. Windchill Dew Point Humidity Wind Precip. Elev Updated Type
                   

Watches & Warnings

Lake Effect Snow Warning
Issued: 10:04 AM EST Feb. 11, 2016 – National Weather Service

... Lake effect snow warning remains in effect until 4 PM EST this
afternoon...

* accumulations... additional accumulations of 2 to locally 6
inches are expected during the daylight hours today. The
greater accumulations are expected over inland northwest
Pennsylvania. Storm totals since Tuesday could approach two
feet in some areas.

* Timing... snow showers will continue today. The snow showers will
begin to diminish around midday and will end from west to east
this evening.

* Impacts... snow covered roads and reduced visibility during
heavier snow showers and squalls.

* Winds... northwest 10 to 20 mph with gusts up to 30 mph.

* Temperatures... 12 to 18.

Precautionary/preparedness actions...

In lake effect snow the weather can vary from locally heavy snow
in narrow bands to dry weather just a few miles away. If you will
be traveling across the region be prepared for rapid changes in
Road and visibility conditions. Stay tuned to NOAA Weather Radio
for further details or updates.